Time;durP1;ratioP1;P1;durP2;ratioP2;P2;SDS_P1;SDS_P2;PMS_P1;PMS_P2;Temp;Humidity;BMP_temperature;BMP_pressure;BME280_temperature;BME280_humidity;BME280_pressure;Samples;Min_cycle;Max_cycle;Signal;HPM_P1;HPM_P2
2022/11/07 00:03:09;;;;;;;5.93;4.20;;;11.30;99.90;;;;;;2614704;54;20134;-76
2022/11/07 00:08:58;;;;;;;9.53;4.63;;;11.40;99.90;;;;;;2615315;54;20173;-76
2022/11/07 00:14:48;;;;;;;4.63;4.23;;;11.30;99.90;;;;;;2614554;54;20454;-79
2022/11/07 00:24:08;;;;;;;5.00;4.50;;;11.30;99.90;;;;;;2614878;54;20358;-79
2022/11/07 00:29:56;;;;;;;4.27;3.83;;;11.30;99.90;;;;;;2613983;54;20450;-80
2022/11/07 00:35:43;;;;;;;5.83;4.13;;;11.50;99.90;;;;;;2614356;54;20150;-80
2022/11/07 00:41:31;;;;;;;5.60;4.00;;;11.50;99.90;;;;;;2611634;54;20134;-79
2022/11/07 00:47:19;;;;;;;5.83;3.70;;;11.50;99.90;;;;;;2615647;54;20487;-79
2022/11/07 00:53:06;;;;;;;3.50;3.30;;;11.30;99.90;;;;;;2612943;54;20158;-79
2022/11/07 00:58:56;;;;;;;5.47;4.50;;;11.30;99.90;;;;;;2615414;54;20135;-80
2022/11/07 01:10:50;;;;;;;7.83;4.23;;;11.30;99.90;;;;;;2614657;39;20490;-77
2022/11/07 01:16:40;;;;;;;4.17;3.70;;;11.30;99.90;;;;;;2615826;54;20687;-79
2022/11/07 01:22:37;;;;;;;4.20;3.90;;;11.20;99.90;;;;;;2612677;54;20507;-80
2022/11/07 01:28:24;;;;;;;4.83;3.70;;;11.20;99.90;;;;;;2614086;54;20138;-81
2022/11/07 01:34:11;;;;;;;4.00;3.70;;;11.10;99.90;;;;;;2614825;54;20159;-81
2022/11/07 01:39:58;;;;;;;3.73;3.40;;;11.00;99.90;;;;;;2612738;54;20147;-80
2022/11/07 01:45:45;;;;;;;4.47;3.80;;;11.00;99.90;;;;;;2613863;54;20134;-80
2022/11/07 01:51:40;;;;;;;4.10;3.30;;;11.00;99.90;;;;;;2614932;54;20199;-78
2022/11/07 02:08:27;;;;;;;4.60;3.60;;;10.90;99.90;;;;;;2615857;54;20389;-80
2022/11/07 02:14:16;;;;;;;4.93;3.20;;;10.90;99.90;;;;;;2615356;54;20447;-80
2022/11/07 02:24:09;;;;;;;4.87;3.60;;;11.00;99.90;;;;;;2614123;54;20374;-81
2022/11/07 02:30:01;;;;;;;4.53;3.77;;;10.80;99.90;;;;;;2616491;39;20695;-80
2022/11/07 02:35:51;;;;;;;3.40;3.10;;;10.90;99.90;;;;;;2615929;54;20407;-80
2022/11/07 02:41:38;;;;;;;4.73;3.67;;;11.00;99.90;;;;;;2613339;54;20366;-80
2022/11/07 02:47:26;;;;;;;5.77;3.33;;;10.80;99.90;;;;;;2615799;39;20589;-77
2022/11/07 02:53:14;;;;;;;4.43;3.00;;;10.80;99.90;;;;;;2613930;54;20767;-80
2022/11/07 02:59:02;;;;;;;5.30;3.50;;;11.00;99.90;;;;;;2615069;54;20146;-76
2022/11/07 03:04:49;;;;;;;11.10;3.90;;;11.00;99.90;;;;;;2613475;54;20154;-75
2022/11/07 03:10:37;;;;;;;7.73;4.00;;;11.20;99.90;;;;;;2615811;54;20422;-77
2022/11/07 03:13:40;;;;;;;4.87;3.47;;;11.40;99.90;;;;;;2615330;54;20399;-76
2022/11/07 03:16:08;;;;;;;4.77;4.37;;;11.30;99.90;;;;;;2615380;54;20286;-79
2022/11/07 03:21:55;;;;;;;4.37;3.20;;;11.40;99.90;;;;;;2615630;54;20454;-80
2022/11/07 03:27:48;;;;;;;7.67;3.70;;;11.30;99.90;;;;;;2613825;54;20122;-80
2022/11/07 03:33:36;;;;;;;5.30;3.90;;;11.50;99.90;;;;;;2615319;54;20395;-80
2022/11/07 03:39:24;;;;;;;4.03;3.67;;;11.30;99.90;;;;;;2615226;54;20130;-80
2022/11/07 03:45:14;;;;;;;7.63;4.10;;;11.30;99.90;;;;;;2615558;54;20646;-78
2022/11/07 03:51:01;;;;;;;8.47;4.30;;;11.20;99.90;;;;;;2614308;54;20401;-79
2022/11/07 03:56:49;;;;;;;6.60;4.03;;;11.30;99.90;;;;;;2615258;54;20162;-78
2022/11/07 04:02:37;;;;;;;4.07;3.77;;;11.10;99.90;;;;;;2615735;54;20260;-79
2022/11/07 04:08:25;;;;;;;5.43;4.67;;;11.00;99.90;;;;;;2616162;54;20406;-80
2022/11/07 04:24:10;;;;;;;4.17;3.57;;;11.30;99.90;;;;;;2616543;54;20411;-76
2022/11/07 04:29:57;;;;;;;6.97;5.07;;;11.10;99.90;;;;;;2616023;54;20434;-77
2022/11/07 04:35:45;;;;;;;5.30;4.03;;;10.90;99.90;;;;;;2619047;54;20149;-79
2022/11/07 04:41:32;;;;;;;7.40;4.57;;;11.00;99.90;;;;;;2613229;54;20150;-75
2022/11/07 04:47:20;;;;;;;13.60;4.03;;;11.00;99.90;;;;;;2616368;39;20584;-77
2022/11/07 04:53:14;;;;;;;9.33;4.80;;;10.90;99.90;;;;;;2615944;54;20126;-75
2022/11/07 04:59:02;;;;;;;7.30;3.77;;;10.90;99.90;;;;;;2614317;54;20499;-75
2022/11/07 05:04:50;;;;;;;10.13;5.50;;;10.90;99.90;;;;;;2615304;54;20138;-76
2022/11/07 05:10:38;;;;;;;8.70;4.33;;;11.00;99.90;;;;;;2615884;54;20438;-76
2022/11/07 05:16:26;;;;;;;6.17;4.37;;;11.00;99.90;;;;;;2616442;54;20138;-76
2022/11/07 05:28:30;;;;;;;22.77;5.67;;;11.10;99.90;;;;;;2615042;39;20945;-76
2022/11/07 05:34:17;;;;;;;7.10;3.87;;;11.00;99.90;;;;;;2614919;54;20391;-77
2022/11/07 05:40:06;;;;;;;6.70;4.10;;;11.00;99.90;;;;;;2612602;54;20199;-78
2022/11/07 05:45:58;;;;;;;4.97;4.00;;;11.10;99.90;;;;;;2614541;54;20358;-78
2022/11/07 05:51:45;;;;;;;8.30;4.40;;;11.20;99.90;;;;;;2610395;54;20384;-77
2022/11/07 05:54:11;;;;;;;8.50;4.97;;;11.10;99.90;;;;;;2612167;54;21119;-77
2022/11/07 05:56:37;;;;;;;20.10;5.90;;;11.20;99.90;;;;;;2611551;47;20177;-79
2022/11/07 06:02:25;;;;;;;4.63;3.83;;;11.10;99.90;;;;;;2611833;54;20410;-78
2022/11/07 06:08:13;;;;;;;11.90;5.30;;;11.30;99.90;;;;;;2612500;54;20134;-76
2022/11/07 06:14:02;;;;;;;5.63;4.30;;;11.30;99.90;;;;;;2613023;54;20396;-78
2022/11/07 06:23:51;;;;;;;10.30;4.67;;;11.30;99.90;;;;;;2612680;54;20523;-79
2022/11/07 06:26:17;;;;;;;8.90;5.17;;;11.50;99.90;;;;;;2609950;54;21192;-78
2022/11/07 06:32:05;;;;;;;7.43;5.10;;;11.60;99.90;;;;;;2612238;54;20134;-78
2022/11/07 06:37:53;;;;;;;10.67;4.60;;;11.80;99.90;;;;;;2611576;39;20549;-77
2022/11/07 06:43:41;;;;;;;8.87;5.90;;;11.90;99.90;;;;;;2614300;54;20134;-75
2022/11/07 06:49:29;;;;;;;7.70;4.83;;;12.10;99.90;;;;;;2614484;54;20378;-79
2022/11/07 06:55:16;;;;;;;10.20;4.90;;;12.10;99.90;;;;;;2612940;54;20230;-79
2022/11/07 07:01:12;;;;;;;5.77;5.27;;;12.20;99.90;;;;;;2609891;54;20195;-80
2022/11/07 07:07:00;;;;;;;6.80;5.20;;;12.20;99.90;;;;;;2613383;54;20407;-82
2022/11/07 07:12:48;;;;;;;8.10;5.50;;;12.30;99.90;;;;;;2612091;54;20420;-82
2022/11/07 07:18:36;;;;;;;8.57;4.93;;;12.20;99.90;;;;;;2614992;54;20134;-81
2022/11/07 07:24:24;;;;;;;6.63;5.87;;;12.30;99.90;;;;;;2614314;54;20410;-80
2022/11/07 07:30:12;;;;;;;8.87;6.23;;;12.40;99.90;;;;;;2616479;54;20150;-81
2022/11/07 07:36:00;;;;;;;10.30;5.50;;;12.50;99.90;;;;;;2614178;54;20419;-80
2022/11/07 07:39:19;;;;;;;9.00;6.00;;;12.50;99.90;;;;;;2612620;47;20411;-80
2022/11/07 07:41:46;;;;;;;7.03;5.30;;;12.60;99.90;;;;;;2611873;54;20162;-80
2022/11/07 07:47:34;;;;;;;11.13;6.40;;;12.60;99.90;;;;;;2614178;54;20394;-80
2022/11/07 07:53:22;;;;;;;6.90;5.70;;;12.80;99.90;;;;;;2614188;54;20134;-81
2022/11/07 07:59:09;;;;;;;17.30;7.30;;;12.80;99.90;;;;;;2614815;54;20635;-79
2022/11/07 08:04:57;;;;;;;5.53;5.13;;;13.00;99.90;;;;;;2613427;54;20190;-79
2022/11/07 08:10:45;;;;;;;12.03;5.80;;;13.20;99.90;;;;;;2614895;54;20170;-79
2022/11/07 08:16:33;;;;;;;9.57;6.77;;;13.30;99.90;;;;;;2615406;54;20391;-78
2022/11/07 08:19:39;;;;;;;6.70;6.00;;;13.20;99.90;;;;;;2615028;54;20423;-79
2022/11/07 08:22:05;;;;;;;7.17;5.20;;;13.30;99.90;;;;;;2615301;47;20169;-78
2022/11/07 08:27:53;;;;;;;5.70;5.20;;;13.30;99.90;;;;;;2616199;54;20130;-79
2022/11/07 08:33:40;;;;;;;7.77;5.97;;;13.30;99.90;;;;;;2615121;54;20122;-78
2022/11/07 08:39:28;;;;;;;9.70;5.37;;;13.30;99.90;;;;;;2614665;54;20710;-76
2022/11/07 08:45:17;;;;;;;7.93;5.37;;;13.30;99.90;;;;;;2614538;54;20431;-77
2022/11/07 08:51:05;;;;;;;7.10;6.40;;;13.40;99.90;;;;;;2614645;54;20387;-78
2022/11/07 08:56:53;;;;;;;12.33;6.00;;;13.30;99.90;;;;;;2617212;54;20439;-80
2022/11/07 09:02:42;;;;;;;8.77;5.93;;;13.30;99.90;;;;;;2615016;54;20507;-79
2022/11/07 09:08:31;;;;;;;10.30;5.80;;;13.30;99.90;;;;;;2615916;54;20419;-80
2022/11/07 09:14:19;;;;;;;6.13;5.63;;;13.40;99.90;;;;;;2616635;54;20931;-81
2022/11/07 09:24:12;;;;;;;8.40;5.90;;;13.40;99.90;;;;;;2615451;54;20383;-81
2022/11/07 09:30:01;;;;;;;6.00;5.60;;;13.60;99.90;;;;;;2615702;54;20496;-80
2022/11/07 09:32:26;;;;;;;7.13;5.70;;;13.80;99.90;;;;;;2613363;54;20431;-81
2022/11/07 09:34:52;;;;;;;12.07;6.00;;;13.70;99.90;;;;;;2616061;54;21387;-82
2022/11/07 09:47:13;;;;;;;8.97;5.73;;;14.20;99.90;;;;;;2616498;54;20442;-78
2022/11/07 10:00:10;;;;;;;9.37;6.87;;;14.10;99.90;;;;;;2616684;54;20403;-80
2022/11/07 10:02:55;;;;;;;7.00;5.20;;;13.90;99.90;;;;;;2613408;47;20428;-81
2022/11/07 10:24:42;;;;;;;4.57;2.97;;;12.70;99.90;;;;;;2614901;54;20544;-76
2022/11/07 10:27:14;;;;;;;8.30;3.53;;;12.60;99.90;;;;;;2614124;47;20448;-76
2022/11/07 10:43:07;;;;;;;9.40;4.27;;;12.40;99.90;;;;;;2614300;39;20718;-81
2022/11/07 10:49:00;;;;;;;5.10;4.13;;;12.50;99.90;;;;;;2615210;31;20892;-76
2022/11/07 10:54:47;;;;;;;15.10;6.67;;;12.40;99.90;;;;;;2612746;54;20494;-81
2022/11/07 11:00:38;;;;;;;8.57;6.60;;;12.50;99.90;;;;;;2615001;54;20710;-80
2022/11/07 11:06:29;;;;;;;9.23;7.00;;;12.70;99.90;;;;;;2614683;54;20436;-82
2022/11/07 11:18:49;;;;;;;8.43;6.43;;;12.90;99.90;;;;;;2614151;54;20366;-81
2022/11/07 11:40:35;;;;;;;4.40;3.77;;;13.30;99.90;;;;;;2614884;54;20359;-81
2022/11/07 11:46:29;;;;;;;8.20;4.10;;;13.60;99.90;;;;;;2614383;54;20400;-82
2022/11/07 12:02:30;;;;;;;10.73;4.30;;;14.00;99.90;;;;;;2615808;54;20398;-81
2022/11/07 12:52:04;;;;;;;5.20;4.50;;;15.90;99.90;;;;;;2615126;54;20392;-76
2022/11/07 12:57:54;;;;;;;8.93;5.40;;;16.00;99.90;;;;;;2615287;46;20382;-77
2022/11/07 13:03:55;;;;;;;12.07;6.60;;;15.70;99.90;;;;;;2615290;54;20395;-76
2022/11/07 13:10:01;;;;;;;13.27;5.50;;;15.50;99.90;;;;;;2615684;39;20913;-79
2022/11/07 13:15:48;;;;;;;8.47;4.90;;;15.20;99.90;;;;;;2614660;46;20427;-81
2022/11/07 13:21:40;;;;;;;5.57;5.07;;;15.00;99.90;;;;;;2615729;54;20162;-82
2022/11/07 13:30:55;;;;;;;4.90;4.43;;;15.00;99.90;;;;;;2616691;54;20390;-78
2022/11/07 13:36:46;;;;;;;8.70;5.57;;;15.00;99.90;;;;;;2616128;54;20390;-77
2022/11/07 13:42:35;;;;;;;8.17;5.40;;;15.10;99.90;;;;;;2616787;54;20399;-78
2022/11/07 13:55:20;;;;;;;8.40;5.60;;;15.00;99.90;;;;;;2617033;54;20364;-80
2022/11/07 14:01:10;;;;;;;5.87;5.20;;;15.00;99.90;;;;;;2615921;54;20411;-80
2022/11/07 14:07:00;;;;;;;8.10;5.90;;;15.00;99.90;;;;;;2618155;54;21015;-80
2022/11/07 14:12:51;;;;;;;6.50;5.60;;;15.00;99.90;;;;;;2618708;54;20438;-81
2022/11/07 14:18:46;;;;;;;6.83;6.23;;;15.00;99.90;;;;;;2618490;54;20406;-80
2022/11/07 14:24:35;;;;;;;12.07;6.50;;;15.10;99.90;;;;;;2618163;54;20395;-80
2022/11/07 14:30:24;;;;;;;8.30;7.60;;;15.00;99.90;;;;;;2618503;54;20406;-80
2022/11/07 14:36:12;;;;;;;7.67;6.17;;;15.00;99.90;;;;;;2617139;54;20430;-80
2022/11/07 14:42:01;;;;;;;5.70;5.30;;;15.00;99.90;;;;;;2617652;54;20520;-80
2022/11/07 14:47:50;;;;;;;7.07;6.07;;;15.00;99.90;;;;;;2618143;54;20487;-80
2022/11/07 14:53:49;;;;;;;8.10;6.67;;;15.00;99.90;;;;;;2616493;54;20411;-77
2022/11/07 14:59:38;;;;;;;7.03;5.97;;;14.90;99.90;;;;;;2616207;54;20372;-79
2022/11/07 15:05:29;;;;;;;5.97;5.37;;;14.90;99.90;;;;;;2616053;54;20391;-79
2022/11/07 15:14:48;;;;;;;6.03;5.43;;;14.80;99.90;;;;;;2616254;54;20462;-77
2022/11/07 15:23:33;;;;;;;6.40;5.43;;;14.80;99.90;;;;;;2616126;54;20916;-77
2022/11/07 15:29:22;;;;;;;5.87;5.20;;;14.80;99.90;;;;;;2616183;54;20455;-77
2022/11/07 15:35:18;;;;;;;5.20;4.70;;;14.70;99.90;;;;;;2615851;54;20251;-78
2022/11/07 15:41:06;;;;;;;6.20;5.40;;;14.70;99.90;;;;;;2616109;54;20403;-77
2022/11/07 15:46:54;;;;;;;7.30;5.43;;;14.60;99.90;;;;;;2615970;46;20234;-77
2022/11/07 15:52:42;;;;;;;5.90;5.13;;;14.50;99.90;;;;;;2617706;39;20508;-77
2022/11/07 15:58:30;;;;;;;8.83;4.87;;;14.50;99.90;;;;;;2619203;54;20487;-81
2022/11/07 16:04:17;;;;;;;8.13;5.27;;;14.50;99.90;;;;;;2618792;46;20173;-80
2022/11/07 16:16:45;;;;;;;7.20;6.23;;;14.50;99.90;;;;;;2615131;54;21256;-77
2022/11/07 16:22:33;;;;;;;5.83;5.30;;;14.50;99.90;;;;;;2616105;54;20403;-77
2022/11/07 16:31:42;;;;;;;7.93;6.23;;;14.60;99.90;;;;;;2615825;54;20407;-78
2022/11/07 16:37:30;;;;;;;7.17;6.57;;;14.50;99.90;;;;;;2617424;54;20119;-79
2022/11/07 16:43:20;;;;;;;8.10;5.20;;;14.60;99.90;;;;;;2615912;54;20675;-76
2022/11/07 16:55:31;;;;;;;5.77;5.17;;;14.40;99.90;;;;;;2616294;54;20387;-81
2022/11/07 17:01:20;;;;;;;8.73;5.70;;;14.50;99.90;;;;;;2617295;39;20750;-80
2022/11/07 17:07:15;;;;;;;6.33;5.83;;;14.50;99.90;;;;;;2619809;54;20387;-80
2022/11/07 17:13:03;;;;;;;6.27;5.77;;;14.60;99.90;;;;;;2619998;54;20371;-80
2022/11/07 17:18:52;;;;;;;9.27;5.90;;;14.50;99.90;;;;;;2619563;54;20118;-79
2022/11/07 17:24:42;;;;;;;5.30;4.80;;;14.50;99.90;;;;;;2615815;54;20391;-77
2022/11/07 17:30:29;;;;;;;5.80;5.20;;;14.60;99.90;;;;;;2617406;39;20975;-80
2022/11/07 17:33:48;;;;;;;10.13;5.50;;;14.70;99.90;;;;;;2616652;47;20427;-81
2022/11/07 17:39:36;;;;;;;6.57;5.10;;;14.50;99.90;;;;;;2617799;54;20406;-80
2022/11/07 17:45:24;;;;;;;6.17;5.10;;;14.50;99.90;;;;;;2617603;54;20118;-80
2022/11/07 17:51:12;;;;;;;5.40;4.90;;;14.50;99.90;;;;;;2617387;54;20483;-80
2022/11/07 17:57:02;;;;;;;5.60;5.00;;;14.50;99.90;;;;;;2616505;54;20395;-81
2022/11/07 18:02:51;;;;;;;5.83;5.33;;;14.50;99.90;;;;;;2616762;54;20395;-81
2022/11/07 18:08:39;;;;;;;9.33;5.73;;;14.50;99.90;;;;;;2617640;54;20423;-79
2022/11/07 18:14:27;;;;;;;7.43;6.23;;;14.60;99.90;;;;;;2618398;54;20392;-80
2022/11/07 18:20:14;;;;;;;7.23;5.27;;;14.50;99.90;;;;;;2617079;54;20126;-78
2022/11/07 18:26:19;;;;;;;7.33;5.03;;;14.60;99.90;;;;;;2616654;39;20331;-77
2022/11/07 18:29:18;;;;;;;4.60;4.40;;;14.60;99.90;;;;;;2616168;39;20837;-77
2022/11/07 18:31:46;;;;;;;5.80;5.40;;;14.60;99.90;;;;;;2615929;54;20396;-77
2022/11/07 18:37:33;;;;;;;11.13;5.80;;;14.50;99.90;;;;;;2616453;54;20390;-77
2022/11/07 18:43:21;;;;;;;9.90;5.53;;;14.60;99.90;;;;;;2616991;54;20134;-77
2022/11/07 18:49:12;;;;;;;6.30;5.70;;;14.50;99.90;;;;;;2616997;54;20146;-80
2022/11/07 18:55:00;;;;;;;7.80;4.90;;;14.60;99.90;;;;;;2618910;54;20398;-82
2022/11/07 19:00:48;;;;;;;6.60;5.63;;;14.40;99.90;;;;;;2618595;54;20142;-79
2022/11/07 19:06:46;;;;;;;7.33;5.47;;;14.40;99.90;;;;;;2616605;54;20122;-77
2022/11/07 19:12:34;;;;;;;5.67;5.17;;;14.50;99.90;;;;;;2620836;54;20407;-80
2022/11/07 19:18:22;;;;;;;7.40;5.33;;;14.50;99.90;;;;;;2616317;54;20452;-78
2022/11/07 19:24:11;;;;;;;9.63;7.80;;;14.50;99.90;;;;;;2616405;54;20130;-77
2022/11/07 19:33:49;;;;;;;5.50;5.10;;;14.50;99.90;;;;;;2618153;54;20386;-79
2022/11/07 19:39:37;;;;;;;6.70;6.20;;;14.60;99.90;;;;;;2617553;54;20372;-80
2022/11/07 19:45:26;;;;;;;7.23;6.40;;;14.50;99.90;;;;;;2618318;54;20130;-81
2022/11/07 19:51:16;;;;;;;6.03;4.80;;;14.50;99.90;;;;;;2618636;54;20419;-80
2022/11/07 19:57:05;;;;;;;6.07;5.57;;;14.50;99.90;;;;;;2618985;54;20423;-79
2022/11/07 20:02:53;;;;;;;7.10;5.60;;;14.60;99.90;;;;;;2620855;54;20142;-79
2022/11/07 20:08:42;;;;;;;6.83;5.70;;;14.50;99.90;;;;;;2618612;54;20634;-80
2022/11/07 20:14:30;;;;;;;9.07;5.73;;;14.60;99.90;;;;;;2617232;54;20386;-81
2022/11/07 20:20:17;;;;;;;9.13;5.53;;;14.60;99.90;;;;;;2617833;54;20122;-80
2022/11/07 20:26:07;;;;;;;5.47;5.00;;;14.60;99.90;;;;;;2617712;39;20236;-82
2022/11/07 20:29:18;;;;;;;6.60;5.90;;;14.50;99.90;;;;;;2616455;54;20959;-81
2022/11/07 20:31:44;;;;;;;11.53;5.43;;;14.60;99.90;;;;;;2617725;39;20802;-80
2022/11/07 20:37:31;;;;;;;6.60;5.20;;;14.50;99.90;;;;;;2617455;54;20399;-82
2022/11/07 20:43:19;;;;;;;8.57;5.63;;;14.40;99.90;;;;;;2617265;54;20234;-80
2022/11/07 20:49:10;;;;;;;5.87;5.37;;;14.30;99.90;;;;;;2616835;54;20676;-80
2022/11/07 20:54:58;;;;;;;10.97;5.70;;;14.50;99.90;;;;;;2616791;54;20410;-78
2022/11/07 21:00:46;;;;;;;12.17;5.70;;;14.40;99.90;;;;;;2616534;54;20395;-77
2022/11/07 21:06:34;;;;;;;7.73;5.60;;;14.10;99.90;;;;;;2617597;54;20509;-77
2022/11/07 21:12:22;;;;;;;9.17;5.93;;;14.00;99.90;;;;;;2616814;54;20418;-76
2022/11/07 21:15:25;;;;;;;8.90;6.00;;;13.90;99.90;;;;;;2615752;47;20435;-77
2022/11/07 21:17:50;;;;;;;9.00;6.13;;;13.90;99.90;;;;;;2616114;39;20511;-76
2022/11/07 21:23:38;;;;;;;5.90;5.40;;;13.90;99.90;;;;;;2616860;54;20222;-78
2022/11/07 21:36:14;;;;;;;6.33;4.70;;;13.80;99.90;;;;;;2623130;54;20395;-81
2022/11/07 21:42:03;;;;;;;6.00;5.40;;;13.60;99.90;;;;;;2622987;54;20407;-81
2022/11/07 21:47:51;;;;;;;5.40;5.00;;;13.50;99.90;;;;;;2619616;54;20379;-83
2022/11/07 21:53:39;;;;;;;8.50;4.90;;;13.40;99.90;;;;;;2622850;54;20138;-80
2022/11/07 21:59:27;;;;;;;5.73;5.23;;;13.40;99.90;;;;;;2622939;54;20359;-81
2022/11/07 22:05:15;;;;;;;8.70;5.30;;;13.40;99.90;;;;;;2618527;39;20186;-81
2022/11/07 22:11:03;;;;;;;8.97;5.70;;;13.30;99.90;;;;;;2617418;54;20147;-79
2022/11/07 22:16:50;;;;;;;6.83;5.30;;;13.30;99.90;;;;;;2617756;54;20447;-78
2022/11/07 22:22:38;;;;;;;7.30;4.87;;;13.40;99.90;;;;;;2618011;54;20142;-79
2022/11/07 22:28:25;;;;;;;10.20;5.17;;;13.20;99.90;;;;;;2621280;54;20119;-81
2022/11/07 22:34:13;;;;;;;9.77;4.83;;;13.30;99.90;;;;;;2620263;54;20127;-76
2022/11/07 22:40:01;;;;;;;10.60;5.20;;;13.20;99.90;;;;;;2617254;54;20123;-76
2022/11/07 22:45:48;;;;;;;11.07;5.30;;;13.10;99.90;;;;;;2617021;54;20118;-77
2022/11/07 22:51:36;;;;;;;5.23;4.73;;;13.10;99.90;;;;;;2617383;54;20146;-79
2022/11/07 22:57:24;;;;;;;7.50;5.03;;;13.00;99.90;;;;;;2624214;54;20175;-81
2022/11/07 23:03:12;;;;;;;12.73;5.97;;;13.00;99.90;;;;;;2624118;54;20142;-82
2022/11/07 23:09:00;;;;;;;8.97;6.00;;;13.00;99.90;;;;;;2624815;54;20149;-81
2022/11/07 23:14:48;;;;;;;5.90;4.90;;;13.10;99.90;;;;;;2623895;39;20318;-81
2022/11/07 23:26:46;;;;;;;6.20;4.83;;;12.80;99.90;;;;;;2621478;54;20383;-83
2022/11/07 23:29:22;;;;;;;7.53;5.03;;;12.80;99.90;;;;;;2621418;54;20432;-85
2022/11/07 23:31:50;;;;;;;8.13;5.07;;;12.70;99.90;;;;;;2621140;54;20182;-81
2022/11/07 23:37:37;;;;;;;5.03;4.30;;;12.70;99.90;;;;;;2618973;54;20378;-81
2022/11/07 23:43:24;;;;;;;6.90;5.20;;;12.80;99.90;;;;;;2620091;39;20634;-81
